Time;durP1;ratioP1;P1;durP2;ratioP2;P2;SDS_P1;SDS_P2;PMS_P1;PMS_P2;Temp;Humidity;BMP_temperature;BMP_pressure;BME280_temperature;BME280_humidity;BME280_pressure;Samples;Min_cycle;Max_cycle;Signal;HPM_P1;HPM_P2
2022/10/09 00:01:06;;;;;;;2.40;1.50;;;9.90;99.90;;;;;;5105561;28;20435;-70
2022/10/09 00:03:33;;;;;;;3.90;1.80;;;9.80;99.90;;;;;;5101557;28;20461;-70
2022/10/09 00:05:59;;;;;;;4.90;2.10;;;9.80;99.90;;;;;;5108941;28;20431;-70
2022/10/09 00:08:25;;;;;;;4.75;1.75;;;9.80;99.90;;;;;;5107738;28;20460;-70
2022/10/09 00:10:51;;;;;;;2.00;1.77;;;9.90;99.90;;;;;;5108308;28;20723;-70
2022/10/09 00:13:17;;;;;;;1.93;1.70;;;9.90;99.90;;;;;;5108477;28;20404;-69
2022/10/09 00:15:44;;;;;;;3.17;1.90;;;9.90;99.90;;;;;;5109093;28;20426;-69
2022/10/09 00:18:11;;;;;;;2.47;1.30;;;9.90;99.90;;;;;;5106770;28;20410;-70
2022/10/09 00:20:39;;;;;;;3.40;1.48;;;9.90;99.90;;;;;;5107417;28;20396;-70
2022/10/09 00:23:05;;;;;;;2.42;1.40;;;9.90;99.90;;;;;;5107910;28;20397;-70
2022/10/09 00:25:31;;;;;;;2.30;1.80;;;9.90;99.90;;;;;;5105600;28;20494;-69
2022/10/09 00:27:57;;;;;;;3.08;1.80;;;9.80;99.90;;;;;;5108434;28;20471;-70
2022/10/09 00:30:23;;;;;;;2.05;1.80;;;9.80;99.90;;;;;;5106665;28;20507;-69
2022/10/09 00:32:49;;;;;;;2.85;1.60;;;9.70;99.90;;;;;;5108455;28;20429;-69
2022/10/09 00:35:14;;;;;;;2.90;1.50;;;9.60;99.90;;;;;;5108912;28;20412;-69
2022/10/09 00:37:40;;;;;;;2.60;1.77;;;9.40;99.90;;;;;;5106996;28;20430;-70
2022/10/09 00:40:06;;;;;;;3.13;1.70;;;9.40;99.90;;;;;;5107981;28;20937;-69
2022/10/09 00:42:31;;;;;;;5.70;1.70;;;9.50;99.90;;;;;;5107311;28;20495;-68
2022/10/09 00:44:59;;;;;;;3.80;1.60;;;9.40;99.90;;;;;;5108347;28;20398;-69
2022/10/09 00:47:41;;;;;;;1.63;1.30;;;9.40;99.90;;;;;;5084098;28;20400;-69
2022/10/09 00:50:33;;;;;;;2.42;2.00;;;9.40;99.90;;;;;;5107324;28;20407;-70
2022/10/09 00:52:59;;;;;;;2.65;1.73;;;9.30;99.90;;;;;;5107484;28;20443;-69
2022/10/09 00:55:26;;;;;;;4.10;1.60;;;9.30;99.90;;;;;;5107188;28;20412;-69
2022/10/09 00:57:54;;;;;;;3.90;1.73;;;9.30;99.90;;;;;;5109142;28;20423;-70
2022/10/09 01:00:20;;;;;;;1.85;1.70;;;9.40;99.90;;;;;;5111569;28;20442;-69
2022/10/09 01:02:46;;;;;;;1.95;1.55;;;9.50;99.90;;;;;;5113082;28;20420;-70
2022/10/09 01:05:12;;;;;;;2.90;1.80;;;9.50;99.90;;;;;;5113319;28;20435;-69
2022/10/09 01:08:04;;;;;;;2.20;1.60;;;9.50;99.90;;;;;;5110859;28;20553;-69
2022/10/09 01:11:11;;;;;;;4.70;1.48;;;9.50;99.90;;;;;;5107057;28;20407;-70
2022/10/09 01:13:45;;;;;;;3.53;1.70;;;9.60;99.90;;;;;;5019544;28;20863;-70
2022/10/09 01:16:24;;;;;;;3.28;1.80;;;9.50;99.90;;;;;;5102417;28;20396;-70
2022/10/09 01:19:04;;;;;;;3.10;1.60;;;9.60;99.90;;;;;;5112632;28;20427;-70
2022/10/09 01:21:36;;;;;;;2.30;1.67;;;9.50;99.90;;;;;;5112122;28;20372;-69
2022/10/09 01:24:24;;;;;;;2.72;1.92;;;9.60;99.90;;;;;;5092128;28;20413;-70
2022/10/09 01:26:59;;;;;;;3.60;1.83;;;9.60;99.90;;;;;;5092380;28;20392;-70
2022/10/09 01:29:31;;;;;;;3.47;1.52;;;9.70;99.90;;;;;;5103196;28;20460;-70
2022/10/09 01:31:58;;;;;;;2.35;1.60;;;9.60;99.90;;;;;;5112581;28;20419;-70
2022/10/09 01:34:26;;;;;;;1.70;1.50;;;9.70;99.90;;;;;;5112234;28;20805;-70
2022/10/09 01:36:53;;;;;;;2.45;1.90;;;9.60;99.90;;;;;;5111032;28;20388;-70
2022/10/09 01:39:22;;;;;;;3.03;1.60;;;9.70;99.90;;;;;;5112601;28;20938;-70
2022/10/09 01:41:49;;;;;;;1.70;1.60;;;9.70;99.90;;;;;;5112529;28;20429;-70
2022/10/09 01:44:27;;;;;;;3.75;2.00;;;9.60;99.90;;;;;;5111733;28;20774;-70
2022/10/09 01:46:53;;;;;;;3.80;2.00;;;9.60;99.90;;;;;;5112269;28;20375;-70
2022/10/09 01:49:37;;;;;;;2.50;1.70;;;9.60;99.90;;;;;;5109661;28;20909;-70
2022/10/09 01:52:25;;;;;;;2.13;1.80;;;9.70;99.90;;;;;;5111140;28;20444;-69
2022/10/09 01:54:58;;;;;;;2.53;1.48;;;9.50;99.90;;;;;;5104858;28;20504;-70
2022/10/09 01:57:37;;;;;;;2.70;1.70;;;9.60;99.90;;;;;;5111273;28;20406;-70
2022/10/09 02:00:08;;;;;;;1.90;1.70;;;9.50;99.90;;;;;;5091247;28;20816;-70
2022/10/09 02:02:35;;;;;;;3.80;2.10;;;9.50;99.90;;;;;;5102340;28;20404;-69
2022/10/09 02:05:00;;;;;;;2.75;1.70;;;9.40;99.90;;;;;;5110464;28;20396;-70
2022/10/09 02:07:28;;;;;;;2.20;2.00;;;9.40;99.90;;;;;;5111116;28;20403;-70
2022/10/09 02:09:54;;;;;;;2.97;1.88;;;9.40;99.90;;;;;;5110618;28;20435;-69
2022/10/09 02:12:23;;;;;;;1.98;1.55;;;9.50;99.90;;;;;;5110924;28;20403;-69
2022/10/09 02:14:49;;;;;;;2.63;1.80;;;9.50;99.90;;;;;;5110719;28;20894;-70
2022/10/09 02:17:20;;;;;;;2.60;1.90;;;9.50;99.90;;;;;;5111203;28;20517;-70
2022/10/09 02:19:49;;;;;;;3.10;1.67;;;9.40;99.90;;;;;;5111330;28;20472;-69
2022/10/09 02:22:17;;;;;;;2.90;2.00;;;9.50;99.90;;;;;;5105670;28;20394;-70
2022/10/09 02:24:43;;;;;;;3.50;1.95;;;9.50;99.90;;;;;;5110027;28;20423;-70
2022/10/09 02:27:11;;;;;;;2.83;1.60;;;9.60;99.90;;;;;;5081110;28;20913;-70
2022/10/09 02:29:42;;;;;;;3.65;1.83;;;9.60;99.90;;;;;;5110958;28;20446;-70
2022/10/09 02:32:09;;;;;;;4.30;1.60;;;9.40;99.90;;;;;;5110303;28;20403;-69
2022/10/09 02:34:35;;;;;;;5.25;1.80;;;9.40;99.90;;;;;;5110120;28;20898;-69
2022/10/09 02:37:00;;;;;;;2.60;1.80;;;9.50;99.90;;;;;;5111089;28;20390;-69
2022/10/09 02:39:26;;;;;;;3.60;2.20;;;9.30;99.90;;;;;;5109032;28;20407;-69
2022/10/09 02:41:52;;;;;;;3.67;2.20;;;9.50;99.90;;;;;;5110909;28;20769;-69
2022/10/09 02:44:17;;;;;;;3.30;1.73;;;9.40;99.90;;;;;;5108756;28;20408;-70
2022/10/09 02:46:43;;;;;;;2.05;1.85;;;9.50;99.90;;;;;;5108279;28;20392;-69
2022/10/09 02:49:08;;;;;;;2.45;1.80;;;9.60;99.90;;;;;;5110897;28;20774;-69
2022/10/09 02:51:34;;;;;;;2.10;1.40;;;9.50;99.90;;;;;;5111249;28;20931;-69
2022/10/09 02:54:00;;;;;;;2.67;1.67;;;9.40;99.90;;;;;;5110703;28;20451;-69
2022/10/09 02:56:25;;;;;;;1.63;1.53;;;9.40;99.90;;;;;;5110913;28;20376;-69
2022/10/09 02:58:51;;;;;;;2.90;1.70;;;9.30;99.90;;;;;;5110408;28;20449;-69
2022/10/09 03:01:17;;;;;;;2.90;1.63;;;9.40;99.90;;;;;;5111008;28;20427;-69
2022/10/09 03:03:43;;;;;;;1.90;1.70;;;9.40;99.90;;;;;;5110647;28;20401;-69
2022/10/09 03:06:17;;;;;;;2.28;1.90;;;9.30;99.90;;;;;;5110770;28;20432;-70
2022/10/09 03:08:45;;;;;;;2.60;1.90;;;9.30;99.90;;;;;;5110753;28;20789;-70
2022/10/09 03:11:15;;;;;;;2.30;2.10;;;9.40;99.90;;;;;;5110270;28;20404;-70
2022/10/09 03:13:41;;;;;;;4.95;1.70;;;9.30;99.90;;;;;;5109903;28;20917;-69
2022/10/09 03:16:09;;;;;;;2.42;1.60;;;9.20;99.90;;;;;;5109725;28;20419;-69
2022/10/09 03:18:35;;;;;;;2.10;1.50;;;9.30;99.90;;;;;;5110634;28;20845;-70
2022/10/09 03:21:05;;;;;;;2.65;1.88;;;9.30;99.90;;;;;;5110614;28;20384;-70
2022/10/09 03:23:31;;;;;;;3.00;1.80;;;9.40;99.90;;;;;;5091538;28;20421;-70
2022/10/09 03:25:57;;;;;;;1.73;1.60;;;9.30;99.90;;;;;;5090171;28;20481;-70
2022/10/09 03:28:24;;;;;;;2.10;1.60;;;9.30;99.90;;;;;;5100589;28;20381;-69
2022/10/09 03:30:49;;;;;;;2.10;1.90;;;9.30;99.90;;;;;;5110168;28;20368;-69
2022/10/09 03:33:15;;;;;;;1.90;1.40;;;9.20;99.90;;;;;;5109224;28;20460;-69
2022/10/09 03:35:41;;;;;;;3.40;1.57;;;9.20;99.90;;;;;;5110959;28;20419;-70
2022/10/09 03:38:06;;;;;;;4.00;2.00;;;9.20;99.90;;;;;;5110911;28;20433;-69
2022/10/09 03:40:32;;;;;;;3.00;1.50;;;9.30;99.90;;;;;;5110850;28;20437;-69
2022/10/09 03:42:58;;;;;;;2.80;1.60;;;9.30;99.90;;;;;;5092307;28;20792;-69
2022/10/09 03:45:23;;;;;;;2.90;1.70;;;9.20;99.90;;;;;;5110633;28;20380;-70
2022/10/09 03:47:49;;;;;;;4.40;1.80;;;9.20;99.90;;;;;;5108965;28;20420;-70
2022/10/09 03:50:14;;;;;;;2.40;1.50;;;9.20;99.90;;;;;;5085617;28;20393;-70
2022/10/09 03:52:40;;;;;;;1.83;1.70;;;9.20;99.90;;;;;;5103675;28;20391;-69
2022/10/09 03:55:07;;;;;;;3.33;1.90;;;9.20;99.90;;;;;;5107994;28;20478;-70
2022/10/09 03:57:32;;;;;;;2.50;1.80;;;9.20;99.90;;;;;;5100943;28;20403;-69
2022/10/09 03:59:58;;;;;;;1.93;1.73;;;9.20;99.90;;;;;;5109784;28;20433;-70
2022/10/09 04:02:23;;;;;;;3.03;1.70;;;9.10;99.90;;;;;;5110192;28;21068;-69
2022/10/09 04:04:49;;;;;;;2.10;1.60;;;9.10;99.90;;;;;;5110239;28;20397;-70
2022/10/09 04:07:14;;;;;;;2.38;1.60;;;9.10;99.90;;;;;;5110548;28;20389;-69
2022/10/09 04:09:40;;;;;;;3.00;1.60;;;9.00;99.90;;;;;;5110513;28;20399;-70
2022/10/09 04:12:05;;;;;;;3.97;2.20;;;9.00;99.90;;;;;;5092335;28;20901;-69
2022/10/09 04:14:31;;;;;;;2.30;1.90;;;9.10;99.90;;;;;;5110415;28;20424;-70
2022/10/09 04:16:56;;;;;;;3.00;1.80;;;9.10;99.90;;;;;;5109398;28;20490;-69
2022/10/09 04:19:22;;;;;;;2.00;1.90;;;9.00;99.90;;;;;;5110003;28;20882;-70
2022/10/09 04:21:47;;;;;;;2.60;1.73;;;9.10;99.90;;;;;;5107841;28;20436;-69
2022/10/09 04:24:13;;;;;;;2.80;1.50;;;9.10;99.90;;;;;;5109900;28;20450;-69
2022/10/09 04:26:39;;;;;;;4.00;2.00;;;9.00;99.90;;;;;;5110457;28;20411;-70
2022/10/09 04:29:04;;;;;;;3.47;1.73;;;9.00;99.90;;;;;;5110494;28;20429;-69
2022/10/09 04:31:30;;;;;;;2.85;2.60;;;9.00;99.90;;;;;;5110312;28;20456;-70
2022/10/09 04:33:55;;;;;;;2.40;1.80;;;9.00;99.90;;;;;;5111955;28;20411;-69
2022/10/09 04:36:21;;;;;;;2.40;1.60;;;9.00;99.90;;;;;;5113766;28;20769;-69
2022/10/09 04:38:46;;;;;;;2.87;1.90;;;8.90;99.90;;;;;;5097064;28;20506;-70
2022/10/09 04:41:12;;;;;;;2.43;2.00;;;9.00;99.90;;;;;;5114292;28;20380;-70
2022/10/09 04:43:38;;;;;;;2.00;1.70;;;9.00;99.90;;;;;;5113467;28;20404;-70
2022/10/09 04:46:08;;;;;;;2.70;1.70;;;8.90;99.90;;;;;;5113826;28;20392;-70
2022/10/09 04:48:39;;;;;;;2.10;1.90;;;8.90;99.90;;;;;;5114159;28;20400;-70
2022/10/09 04:51:05;;;;;;;3.95;2.00;;;8.80;99.90;;;;;;5113844;28;20396;-70
2022/10/09 04:53:32;;;;;;;3.08;2.20;;;8.70;99.90;;;;;;5113852;28;20502;-70
2022/10/09 04:56:02;;;;;;;3.40;2.30;;;8.70;99.90;;;;;;5114045;28;20414;-70
2022/10/09 04:58:28;;;;;;;3.60;2.40;;;8.80;99.90;;;;;;5113964;28;20801;-69
2022/10/09 05:00:53;;;;;;;4.10;3.20;;;8.90;99.90;;;;;;5113588;28;20398;-70
2022/10/09 05:03:19;;;;;;;3.60;3.30;;;9.10;99.90;;;;;;5113625;28;20890;-70
2022/10/09 05:05:44;;;;;;;3.83;3.10;;;9.10;99.90;;;;;;5113892;28;20441;-69
2022/10/09 05:08:10;;;;;;;3.90;3.20;;;9.10;99.90;;;;;;5113807;28;20429;-69
2022/10/09 05:10:35;;;;;;;4.10;3.40;;;9.00;99.90;;;;;;5113740;28;20384;-70
2022/10/09 05:13:01;;;;;;;6.13;3.40;;;9.00;99.90;;;;;;5113464;28;20376;-70
2022/10/09 05:15:27;;;;;;;4.27;3.00;;;9.00;99.90;;;;;;5113576;28;20388;-70
2022/10/09 05:17:52;;;;;;;5.33;4.13;;;8.70;99.90;;;;;;5113571;28;20455;-69
2022/10/09 05:20:18;;;;;;;5.10;3.90;;;8.70;99.90;;;;;;5113717;28;20754;-70
2022/10/09 05:22:44;;;;;;;5.03;4.60;;;8.60;99.90;;;;;;5101895;28;20402;-70
2022/10/09 05:25:09;;;;;;;5.13;4.60;;;8.80;99.90;;;;;;5093288;28;20430;-70
2022/10/09 05:27:35;;;;;;;4.97;4.50;;;8.90;99.90;;;;;;5108030;28;20956;-70
2022/10/09 05:30:00;;;;;;;5.43;4.90;;;8.90;99.90;;;;;;5113201;28;20422;-68
2022/10/09 05:32:26;;;;;;;7.93;5.87;;;8.40;99.90;;;;;;5113233;28;20414;-70
2022/10/09 05:34:51;;;;;;;8.25;5.25;;;8.50;99.90;;;;;;5113089;28;20500;-70
2022/10/09 05:37:17;;;;;;;6.70;5.70;;;8.50;99.90;;;;;;5113276;28;20438;-70
2022/10/09 05:39:43;;;;;;;6.95;5.93;;;8.40;99.90;;;;;;5113179;28;20391;-70
2022/10/09 05:42:09;;;;;;;6.82;6.13;;;8.40;99.90;;;;;;5112735;28;20427;-70
2022/10/09 05:44:35;;;;;;;6.90;6.30;;;8.40;99.90;;;;;;5112297;28;20394;-68
2022/10/09 05:47:00;;;;;;;6.97;6.27;;;8.20;99.90;;;;;;5112845;28;20404;-70
2022/10/09 05:49:26;;;;;;;6.97;6.37;;;8.20;99.90;;;;;;5113125;28;20376;-70
2022/10/09 05:51:52;;;;;;;6.05;5.45;;;8.00;99.90;;;;;;5112865;28;20870;-70
2022/10/09 05:54:18;;;;;;;6.00;5.40;;;7.80;99.90;;;;;;5112731;28;20399;-70
2022/10/09 05:56:44;;;;;;;6.90;6.20;;;7.80;99.90;;;;;;5112626;28;20392;-70
2022/10/09 05:59:13;;;;;;;7.45;6.10;;;7.90;99.90;;;;;;5112710;28;20392;-70
2022/10/09 06:01:50;;;;;;;7.80;6.55;;;7.80;99.90;;;;;;5112328;28;20388;-71
2022/10/09 06:04:21;;;;;;;8.15;7.00;;;7.80;99.90;;;;;;5112428;28;20407;-69
2022/10/09 06:06:48;;;;;;;7.88;7.10;;;7.70;99.90;;;;;;5112634;28;20727;-70
2022/10/09 06:09:20;;;;;;;10.13;7.10;;;7.90;99.90;;;;;;5112456;28;20406;-70
2022/10/09 06:11:46;;;;;;;7.63;6.90;;;7.70;99.90;;;;;;5093910;28;20750;-69
2022/10/09 06:14:12;;;;;;;10.17;7.40;;;7.70;99.90;;;;;;5112218;28;20376;-69
2022/10/09 06:16:40;;;;;;;8.80;7.30;;;7.60;99.90;;;;;;5094119;28;20391;-70
2022/10/09 06:19:09;;;;;;;7.20;6.50;;;7.80;99.90;;;;;;5112373;28;20814;-70
2022/10/09 06:21:34;;;;;;;7.88;7.18;;;7.70;99.90;;;;;;5110599;28;20813;-69
2022/10/09 06:24:02;;;;;;;11.53;7.60;;;7.80;99.90;;;;;;5092651;28;20497;-70
2022/10/09 06:26:28;;;;;;;9.15;7.10;;;8.00;99.90;;;;;;5112251;28;20433;-70
2022/10/09 06:28:54;;;;;;;7.32;6.70;;;7.70;99.90;;;;;;5112338;28;20437;-70
2022/10/09 06:31:22;;;;;;;7.65;6.93;;;7.80;99.90;;;;;;5112153;28;20372;-70
2022/10/09 06:33:50;;;;;;;7.60;6.90;;;7.90;99.90;;;;;;5111909;28;20368;-70
2022/10/09 06:36:21;;;;;;;8.50;6.70;;;8.10;99.90;;;;;;5111710;28;20399;-69
2022/10/09 06:38:47;;;;;;;9.05;7.55;;;7.80;99.90;;;;;;5111844;28;20399;-70
2022/10/09 06:41:15;;;;;;;7.90;7.10;;;7.80;99.90;;;;;;5111951;28;20384;-70
2022/10/09 06:43:42;;;;;;;7.70;7.00;;;7.80;99.90;;;;;;5111536;28;20396;-70
2022/10/09 06:46:09;;;;;;;8.60;7.65;;;7.90;99.90;;;;;;5111970;28;20388;-69
2022/10/09 06:48:38;;;;;;;8.20;7.40;;;7.80;99.90;;;;;;5110686;28;20443;-69
2022/10/09 06:51:18;;;;;;;8.65;7.85;;;8.00;99.90;;;;;;5111356;28;20760;-70
2022/10/09 06:53:46;;;;;;;8.80;7.90;;;8.00;99.90;;;;;;5111080;28;20738;-70
2022/10/09 06:56:13;;;;;;;8.52;7.50;;;8.00;99.90;;;;;;5111610;28;20438;-70
2022/10/09 06:58:39;;;;;;;8.47;7.67;;;7.90;99.90;;;;;;5111356;28;20912;-70
2022/10/09 07:01:07;;;;;;;8.23;7.43;;;8.30;99.90;;;;;;5111444;28;20796;-70
2022/10/09 07:03:34;;;;;;;8.25;7.45;;;8.40;99.90;;;;;;5111098;28;20404;-70
2022/10/09 07:06:11;;;;;;;8.07;7.37;;;8.30;99.90;;;;;;5110802;28;20392;-70
2022/10/09 07:08:38;;;;;;;7.60;6.80;;;8.40;99.90;;;;;;5092692;28;20385;-71
2022/10/09 07:11:08;;;;;;;7.72;6.95;;;8.30;99.90;;;;;;5111642;28;20422;-69
2022/10/09 07:13:34;;;;;;;8.55;7.20;;;8.30;99.90;;;;;;5110922;28;20412;-69
2022/10/09 07:15:59;;;;;;;9.30;8.40;;;8.50;99.90;;;;;;5111005;28;20428;-70
2022/10/09 07:18:25;;;;;;;8.27;7.47;;;8.40;99.90;;;;;;5110078;28;20402;-70
2022/10/09 07:20:50;;;;;;;7.80;7.10;;;8.70;99.90;;;;;;5110888;28;20399;-70
2022/10/09 07:23:16;;;;;;;8.57;7.17;;;8.80;99.90;;;;;;5094935;28;20401;-70
2022/10/09 07:25:42;;;;;;;8.00;7.30;;;8.70;99.90;;;;;;5110046;28;20412;-71
2022/10/09 07:28:07;;;;;;;7.25;6.55;;;8.70;99.90;;;;;;5109179;28;20396;-71
2022/10/09 07:30:36;;;;;;;8.10;7.20;;;8.60;99.90;;;;;;5109157;28;20392;-70
2022/10/09 07:33:02;;;;;;;8.38;7.45;;;8.60;99.90;;;;;;5110591;28;20416;-69
2022/10/09 07:35:28;;;;;;;9.10;7.00;;;8.70;99.90;;;;;;5110915;28;20381;-69
2022/10/09 07:37:53;;;;;;;9.80;8.20;;;8.40;99.90;;;;;;5109733;28;20537;-71
2022/10/09 07:40:19;;;;;;;8.73;7.53;;;8.60;99.90;;;;;;5083432;28;20386;-70
2022/10/09 07:42:45;;;;;;;8.20;7.40;;;8.60;99.90;;;;;;5077228;28;20396;-69
2022/10/09 07:45:10;;;;;;;8.33;7.60;;;8.40;99.90;;;;;;5110694;28;20506;-70
2022/10/09 07:47:36;;;;;;;8.18;7.47;;;8.50;99.90;;;;;;5110745;28;20832;-71
2022/10/09 07:50:01;;;;;;;8.10;7.30;;;8.50;99.90;;;;;;5110661;28;20391;-69
2022/10/09 07:52:27;;;;;;;7.90;7.20;;;8.50;99.90;;;;;;5091395;28;20388;-69
2022/10/09 07:54:52;;;;;;;8.80;7.50;;;8.40;99.90;;;;;;5108012;28;20808;-70
2022/10/09 07:57:18;;;;;;;8.70;7.80;;;8.60;99.90;;;;;;5105968;28;20398;-70
2022/10/09 07:59:43;;;;;;;8.10;7.40;;;8.50;99.90;;;;;;5110178;28;20426;-70
2022/10/09 08:02:09;;;;;;;8.43;7.63;;;8.50;99.90;;;;;;5110772;28;20450;-68
2022/10/09 08:04:36;;;;;;;8.60;7.80;;;8.70;99.90;;;;;;5106665;28;20403;-70
2022/10/09 08:07:02;;;;;;;9.20;8.30;;;8.70;99.90;;;;;;5107954;28;20949;-70
2022/10/09 08:09:27;;;;;;;8.98;8.07;;;8.70;99.90;;;;;;5109111;28;20479;-69
2022/10/09 08:11:52;;;;;;;8.77;7.97;;;8.70;99.90;;;;;;5113001;28;20407;-70
2022/10/09 08:14:18;;;;;;;9.00;8.17;;;8.70;99.90;;;;;;5078660;28;20404;-69
2022/10/09 08:16:44;;;;;;;8.30;7.50;;;8.60;99.90;;;;;;5110016;28;20427;-69
2022/10/09 08:19:09;;;;;;;9.10;8.20;;;8.60;99.90;;;;;;5112822;28;20404;-70
2022/10/09 08:21:35;;;;;;;10.07;9.07;;;8.70;99.90;;;;;;5091705;28;20408;-69
2022/10/09 08:24:00;;;;;;;9.40;8.50;;;9.00;99.90;;;;;;5104861;27;22528;-69
2022/10/09 08:26:28;;;;;;;8.57;7.68;;;8.90;99.90;;;;;;5107473;28;20521;-71
2022/10/09 08:29:00;;;;;;;9.57;8.68;;;9.00;99.90;;;;;;5107512;28;20396;-70
2022/10/09 08:31:27;;;;;;;8.77;7.95;;;9.10;99.90;;;;;;5108805;28;20403;-70
2022/10/09 08:33:54;;;;;;;8.98;8.18;;;9.10;99.90;;;;;;5114846;28;20458;-70
2022/10/09 08:36:21;;;;;;;9.30;8.40;;;9.20;99.90;;;;;;5113307;28;20411;-70
2022/10/09 08:38:47;;;;;;;8.02;7.32;;;9.20;99.90;;;;;;5116558;28;20491;-70
2022/10/09 08:41:22;;;;;;;9.30;8.50;;;9.30;99.90;;;;;;5114001;28;20411;-70
2022/10/09 08:43:55;;;;;;;8.93;8.02;;;9.00;99.90;;;;;;5114320;28;20498;-69
2022/10/09 08:46:59;;;;;;;9.27;8.40;;;9.00;99.90;;;;;;5112987;28;20488;-70
2022/10/09 08:49:48;;;;;;;9.38;8.48;;;8.90;99.90;;;;;;5112452;28;20392;-72
2022/10/09 08:52:25;;;;;;;10.70;9.60;;;8.80;99.90;;;;;;5112256;28;20407;-72
2022/10/09 08:54:52;;;;;;;10.40;9.30;;;8.90;99.90;;;;;;5114883;28;20407;-73
2022/10/09 08:57:21;;;;;;;10.15;9.15;;;9.00;99.90;;;;;;5114940;28;20408;-73
2022/10/09 08:59:47;;;;;;;9.85;8.95;;;9.00;99.90;;;;;;5109236;28;20457;-73
2022/10/09 09:02:46;;;;;;;15.10;12.60;;;9.20;99.90;;;;;;5109970;28;20417;-73
2022/10/09 09:05:30;;;;;;;10.15;9.13;;;9.40;99.90;;;;;;5109901;28;20407;-73
2022/10/09 09:08:31;;;;;;;10.50;9.40;;;9.30;99.90;;;;;;5112615;28;20757;-73
2022/10/09 09:11:13;;;;;;;10.60;9.07;;;9.30;99.90;;;;;;5110592;28;20396;-73
2022/10/09 09:14:10;;;;;;;10.77;9.68;;;9.30;99.90;;;;;;5105157;28;20411;-73
2022/10/09 09:16:47;;;;;;;9.90;8.90;;;9.30;99.90;;;;;;5112986;28;20430;-73
2022/10/09 09:19:31;;;;;;;10.35;9.25;;;9.40;99.90;;;;;;5109471;28;20404;-73
2022/10/09 09:21:57;;;;;;;13.63;9.10;;;9.20;99.90;;;;;;5099979;28;20405;-74
2022/10/09 09:24:29;;;;;;;10.40;9.40;;;9.20;99.90;;;;;;5117357;27;20390;-73
2022/10/09 09:27:10;;;;;;;11.32;10.13;;;9.30;99.90;;;;;;5079805;28;20483;-73
2022/10/09 09:29:43;;;;;;;10.27;9.27;;;9.30;99.90;;;;;;5109591;27;20830;-73
2022/10/09 09:32:19;;;;;;;10.23;9.20;;;9.50;99.90;;;;;;5128707;27;20403;-72
2022/10/09 09:34:44;;;;;;;9.55;8.65;;;9.60;99.90;;;;;;5108160;28;20376;-73
2022/10/09 09:37:11;;;;;;;10.80;9.80;;;9.60;99.90;;;;;;5112767;28;20387;-72
2022/10/09 09:39:37;;;;;;;10.13;9.20;;;9.50;99.90;;;;;;5111782;28;20388;-73
2022/10/09 09:42:08;;;;;;;11.35;10.25;;;9.60;99.90;;;;;;5113084;28;20386;-72
2022/10/09 09:44:40;;;;;;;10.17;8.70;;;9.60;99.90;;;;;;5112425;28;20769;-72
2022/10/09 09:47:14;;;;;;;10.50;9.50;;;9.70;99.90;;;;;;5122164;27;20445;-72
2022/10/09 09:49:53;;;;;;;9.50;8.50;;;9.80;99.90;;;;;;5133342;27;20363;-73
2022/10/09 09:52:19;;;;;;;9.90;8.90;;;9.90;99.90;;;;;;5100307;28;20791;-73
2022/10/09 09:54:47;;;;;;;9.48;8.48;;;10.10;99.90;;;;;;5093077;28;20405;-72
2022/10/09 09:57:25;;;;;;;9.50;8.50;;;10.40;99.90;;;;;;5096021;28;20401;-74
2022/10/09 09:59:50;;;;;;;9.45;8.27;;;10.60;99.90;;;;;;5112133;28;20408;-72
2022/10/09 10:02:19;;;;;;;8.60;7.80;;;10.50;99.90;;;;;;5111982;28;20400;-73
2022/10/09 10:04:56;;;;;;;8.95;8.15;;;10.40;99.90;;;;;;5111678;28;20407;-72
2022/10/09 10:07:33;;;;;;;9.50;8.20;;;10.40;99.90;;;;;;5112780;28;20376;-72
2022/10/09 10:10:22;;;;;;;8.90;8.10;;;10.50;99.90;;;;;;5112459;28;20462;-71
2022/10/09 10:12:53;;;;;;;11.07;8.13;;;10.40;99.90;;;;;;5112109;28;20380;-72
2022/10/09 10:15:21;;;;;;;8.60;7.80;;;10.50;99.90;;;;;;5112086;28;20391;-71
2022/10/09 10:17:53;;;;;;;8.70;7.90;;;10.70;99.90;;;;;;5112380;28;20845;-72
2022/10/09 10:20:19;;;;;;;8.43;7.60;;;10.70;99.90;;;;;;5112071;28;20397;-71
2022/10/09 10:22:53;;;;;;;7.97;7.28;;;10.70;99.90;;;;;;5106691;28;20739;-72
2022/10/09 10:25:23;;;;;;;8.70;7.80;;;10.80;99.90;;;;;;5098337;28;20413;-72
2022/10/09 10:27:54;;;;;;;8.10;7.40;;;10.80;99.90;;;;;;5094967;28;20849;-71
2022/10/09 10:30:20;;;;;;;7.95;6.80;;;10.80;99.90;;;;;;5110699;28;20397;-72
2022/10/09 10:32:54;;;;;;;7.93;6.90;;;11.00;99.90;;;;;;5116277;27;20400;-72
2022/10/09 10:35:24;;;;;;;7.93;7.13;;;11.10;99.90;;;;;;5108880;28;20400;-72
2022/10/09 10:38:14;;;;;;;8.45;7.55;;;11.20;99.90;;;;;;5095553;28;20578;-72
2022/10/09 10:40:55;;;;;;;7.82;7.13;;;11.30;99.90;;;;;;5108220;28;20392;-72
2022/10/09 10:43:33;;;;;;;9.07;7.40;;;11.30;99.90;;;;;;5112816;27;20408;-71
2022/10/09 10:46:09;;;;;;;9.25;7.60;;;11.40;99.90;;;;;;5108900;27;20901;-72
2022/10/09 10:48:46;;;;;;;10.40;9.18;;;11.50;99.90;;;;;;5101019;28;20398;-71
2022/10/09 10:51:45;;;;;;;7.80;7.00;;;11.70;99.90;;;;;;5108804;28;20395;-72
2022/10/09 10:54:32;;;;;;;7.32;6.63;;;11.70;99.90;;;;;;5099785;28;20404;-72
2022/10/09 10:57:00;;;;;;;6.90;6.20;;;11.70;99.90;;;;;;5103656;28;20936;-72
2022/10/09 10:59:47;;;;;;;7.60;6.90;;;11.80;99.90;;;;;;5096786;28;20404;-72
2022/10/09 11:02:38;;;;;;;6.70;6.03;;;12.10;99.90;;;;;;5080529;28;20438;-70
2022/10/09 11:05:24;;;;;;;6.63;6.03;;;12.60;99.90;;;;;;5102176;28;20931;-72
2022/10/09 11:08:27;;;;;;;6.50;5.90;;;12.40;99.90;;;;;;5105549;28;20479;-71
2022/10/09 11:11:32;;;;;;;6.60;6.00;;;12.70;99.90;;;;;;5108240;28;20376;-71
2022/10/09 11:14:07;;;;;;;7.13;6.43;;;12.90;99.90;;;;;;5088831;28;20537;-72
2022/10/09 11:16:53;;;;;;;5.70;5.07;;;13.70;99.90;;;;;;5103836;28;20404;-72
2022/10/09 11:19:27;;;;;;;5.85;4.50;;;14.10;99.90;;;;;;5101327;28;20403;-71
2022/10/09 11:22:14;;;;;;;4.90;4.20;;;13.90;99.90;;;;;;5108371;28;20977;-72
2022/10/09 11:24:48;;;;;;;4.40;4.00;;;13.80;99.90;;;;;;5101949;28;20458;-72
2022/10/09 11:27:27;;;;;;;4.78;4.20;;;14.40;99.90;;;;;;5108353;28;21054;-74
2022/10/09 11:30:00;;;;;;;5.90;5.40;;;14.70;99.90;;;;;;5104985;28;20478;-74
2022/10/09 11:32:49;;;;;;;6.40;5.65;;;14.80;99.90;;;;;;5106005;28;20450;-74
2022/10/09 11:35:23;;;;;;;5.97;4.30;;;14.60;99.90;;;;;;5107228;28;20443;-74
2022/10/09 11:38:35;;;;;;;4.10;3.80;;;15.30;99.90;;;;;;5104891;28;20471;-73
2022/10/09 11:41:02;;;;;;;5.17;3.90;;;15.30;99.90;;;;;;5104940;28;20453;-75
2022/10/09 11:43:39;;;;;;;4.70;4.30;;;15.30;99.90;;;;;;5104747;28;20496;-74
2022/10/09 11:46:32;;;;;;;4.57;4.15;;;15.60;99.90;;;;;;5102898;28;20388;-73
2022/10/09 11:49:20;;;;;;;4.35;3.95;;;15.80;99.90;;;;;;5060873;28;20425;-74
2022/10/09 11:52:02;;;;;;;4.22;3.90;;;15.80;99.90;;;;;;5106955;27;20408;-74
2022/10/09 11:54:28;;;;;;;5.07;4.10;;;15.90;99.90;;;;;;5114419;27;20825;-74
2022/10/09 11:57:03;;;;;;;4.10;3.70;;;16.30;99.90;;;;;;5100448;28;20911;-75
2022/10/09 11:59:35;;;;;;;6.68;4.03;;;16.80;99.90;;;;;;5097281;28;20431;-75
2022/10/09 12:02:26;;;;;;;4.40;4.00;;;18.20;99.90;;;;;;5073906;28;20745;-74
2022/10/09 12:04:53;;;;;;;4.53;4.13;;;18.10;99.90;;;;;;5120195;27;20786;-74
2022/10/09 12:07:29;;;;;;;4.20;3.80;;;16.90;99.90;;;;;;5112658;28;20393;-74
2022/10/09 12:09:59;;;;;;;4.55;3.80;;;17.90;99.90;;;;;;5124399;28;20800;-74
2022/10/09 12:12:25;;;;;;;4.20;3.90;;;17.80;99.90;;;;;;5127380;28;20927;-74
2022/10/09 12:14:52;;;;;;;4.97;4.03;;;17.60;99.90;;;;;;5123505;28;20418;-74
2022/10/09 12:17:20;;;;;;;5.18;4.55;;;18.20;99.90;;;;;;5113525;28;20396;-75
2022/10/09 12:19:47;;;;;;;5.35;4.38;;;17.70;99.90;;;;;;5106310;28;20399;-75
2022/10/09 12:22:19;;;;;;;10.98;8.65;;;17.10;99.90;;;;;;5101956;28;20401;-75
2022/10/09 12:24:48;;;;;;;5.47;4.35;;;17.10;99.90;;;;;;5103668;28;20483;-74
2022/10/09 12:27:23;;;;;;;5.05;4.22;;;16.50;99.90;;;;;;5101415;28;20392;-75
2022/10/09 12:30:11;;;;;;;5.10;3.92;;;16.00;99.90;;;;;;5103724;28;20396;-74
2022/10/09 12:33:14;;;;;;;6.10;4.05;;;16.50;99.90;;;;;;5092486;28;20405;-74
2022/10/09 12:35:43;;;;;;;4.32;3.92;;;16.40;99.90;;;;;;5093585;28;20442;-75
2022/10/09 12:38:27;;;;;;;6.13;4.47;;;16.80;99.90;;;;;;5105394;28;20446;-75
2022/10/09 12:40:57;;;;;;;4.20;3.65;;;16.80;99.90;;;;;;5089428;28;20400;-75
2022/10/09 12:43:23;;;;;;;4.75;4.00;;;16.90;99.90;;;;;;5102357;28;20934;-74
2022/10/09 12:45:51;;;;;;;5.32;3.92;;;17.10;99.90;;;;;;5101884;28;20411;-74
2022/10/09 12:48:24;;;;;;;4.63;3.47;;;16.90;99.90;;;;;;5104664;28;20854;-75
2022/10/09 12:50:51;;;;;;;5.15;3.90;;;16.80;99.90;;;;;;5097748;28;20397;-75
2022/10/09 12:53:27;;;;;;;4.53;3.08;;;17.10;99.90;;;;;;5108037;28;20400;-74
2022/10/09 12:55:58;;;;;;;5.03;3.30;;;17.20;99.90;;;;;;5111716;28;20419;-74
2022/10/09 12:58:29;;;;;;;3.30;3.00;;;17.40;99.90;;;;;;5104201;28;20464;-74
2022/10/09 13:01:00;;;;;;;5.20;3.10;;;16.80;99.90;;;;;;5112880;28;20399;-74
2022/10/09 13:03:32;;;;;;;3.75;3.10;;;17.00;99.90;;;;;;5112246;28;20404;-74
2022/10/09 13:05:58;;;;;;;4.25;3.10;;;16.90;99.90;;;;;;5113398;28;20474;-74
2022/10/09 13:08:36;;;;;;;3.72;3.25;;;17.30;99.90;;;;;;5113549;28;20404;-74
2022/10/09 13:11:16;;;;;;;5.40;4.00;;;17.40;99.90;;;;;;5113481;28;20780;-74